sensor_id;sensor_type;location;lat;lon;timestamp;P1;durP1;ratioP1;P2;durP2;ratioP2
40489;SDS011;26196;52.302;10.572;2024-01-27T00:01:24;5.22;;;1.58;;
40489;SDS011;26196;52.302;10.572;2024-01-27T00:05:26;8.73;;;1.42;;
40489;SDS011;26196;52.302;10.572;2024-01-27T00:09:31;6.57;;;1.20;;
40489;SDS011;26196;52.302;10.572;2024-01-27T00:13:33;7.65;;;2.28;;
40489;SDS011;26196;52.302;10.572;2024-01-27T00:17:34;7.35;;;1.92;;
40489;SDS011;26196;52.302;10.572;2024-01-27T00:21:37;7.00;;;2.20;;
40489;SDS011;26196;52.302;10.572;2024-01-27T00:25:38;8.70;;;2.30;;
40489;SDS011;26196;52.302;10.572;2024-01-27T00:29:40;11.30;;;2.15;;
40489;SDS011;26196;52.302;10.572;2024-01-27T00:33:41;9.73;;;2.03;;
40489;SDS011;26196;52.302;10.572;2024-01-27T00:37:43;8.95;;;1.42;;
40489;SDS011;26196;52.302;10.572;2024-01-27T00:41:44;8.10;;;1.40;;
40489;SDS011;26196;52.302;10.572;2024-01-27T00:45:46;8.82;;;1.20;;
40489;SDS011;26196;52.302;10.572;2024-01-27T00:49:48;10.93;;;2.28;;
40489;SDS011;26196;52.302;10.572;2024-01-27T00:53:49;6.15;;;1.33;;
40489;SDS011;26196;52.302;10.572;2024-01-27T00:57:51;8.35;;;1.45;;
40489;SDS011;26196;52.302;10.572;2024-01-27T01:01:54;8.98;;;1.80;;
40489;SDS011;26196;52.302;10.572;2024-01-27T01:05:57;7.95;;;1.77;;
40489;SDS011;26196;52.302;10.572;2024-01-27T01:09:58;9.98;;;2.28;;
40489;SDS011;26196;52.302;10.572;2024-01-27T01:14:00;7.95;;;1.20;;
40489;SDS011;26196;52.302;10.572;2024-01-27T01:18:01;6.85;;;1.35;;
40489;SDS011;26196;52.302;10.572;2024-01-27T01:22:04;10.25;;;1.92;;
40489;SDS011;26196;52.302;10.572;2024-01-27T01:26:06;9.65;;;1.60;;
40489;SDS011;26196;52.302;10.572;2024-01-27T01:30:07;12.55;;;2.80;;
40489;SDS011;26196;52.302;10.572;2024-01-27T01:34:10;10.43;;;2.25;;
40489;SDS011;26196;52.302;10.572;2024-01-27T01:38:12;10.88;;;1.98;;
40489;SDS011;26196;52.302;10.572;2024-01-27T01:42:13;12.13;;;2.47;;
40489;SDS011;26196;52.302;10.572;2024-01-27T01:46:15;6.45;;;1.65;;
40489;SDS011;26196;52.302;10.572;2024-01-27T01:50:17;9.25;;;2.30;;
40489;SDS011;26196;52.302;10.572;2024-01-27T01:54:19;7.03;;;1.35;;
40489;SDS011;26196;52.302;10.572;2024-01-27T01:58:23;7.97;;;1.45;;
40489;SDS011;26196;52.302;10.572;2024-01-27T02:02:25;8.55;;;1.58;;
40489;SDS011;26196;52.302;10.572;2024-01-27T02:06:27;11.75;;;1.75;;
40489;SDS011;26196;52.302;10.572;2024-01-27T02:10:28;11.38;;;1.92;;
40489;SDS011;26196;52.302;10.572;2024-01-27T02:14:37;7.53;;;1.83;;
40489;SDS011;26196;52.302;10.572;2024-01-27T02:18:38;6.55;;;1.58;;
40489;SDS011;26196;52.302;10.572;2024-01-27T02:22:40;7.03;;;1.52;;
40489;SDS011;26196;52.302;10.572;2024-01-27T02:26:41;5.75;;;1.42;;
40489;SDS011;26196;52.302;10.572;2024-01-27T02:30:43;12.18;;;2.30;;
40489;SDS011;26196;52.302;10.572;2024-01-27T02:34:45;11.60;;;1.73;;
40489;SDS011;26196;52.302;10.572;2024-01-27T02:38:46;7.15;;;2.17;;
40489;SDS011;26196;52.302;10.572;2024-01-27T02:42:47;14.35;;;2.10;;
40489;SDS011;26196;52.302;10.572;2024-01-27T02:46:49;11.88;;;1.38;;
40489;SDS011;26196;52.302;10.572;2024-01-27T02:50:51;6.47;;;1.30;;
40489;SDS011;26196;52.302;10.572;2024-01-27T02:54:53;13.43;;;2.00;;
40489;SDS011;26196;52.302;10.572;2024-01-27T02:58:54;11.57;;;3.03;;
40489;SDS011;26196;52.302;10.572;2024-01-27T03:02:56;8.25;;;2.22;;
40489;SDS011;26196;52.302;10.572;2024-01-27T03:06:59;9.88;;;3.10;;
40489;SDS011;26196;52.302;10.572;2024-01-27T03:11:01;10.65;;;1.80;;
40489;SDS011;26196;52.302;10.572;2024-01-27T03:15:02;10.60;;;1.42;;
40489;SDS011;26196;52.302;10.572;2024-01-27T03:19:04;11.88;;;1.95;;
40489;SDS011;26196;52.302;10.572;2024-01-27T03:23:06;8.00;;;1.85;;
40489;SDS011;26196;52.302;10.572;2024-01-27T03:27:08;10.05;;;2.30;;
40489;SDS011;26196;52.302;10.572;2024-01-27T03:31:09;16.67;;;3.47;;
40489;SDS011;26196;52.302;10.572;2024-01-27T03:35:11;9.02;;;1.80;;
40489;SDS011;26196;52.302;10.572;2024-01-27T03:39:12;10.88;;;2.08;;
40489;SDS011;26196;52.302;10.572;2024-01-27T03:43:14;9.07;;;1.42;;
40489;SDS011;26196;52.302;10.572;2024-01-27T03:47:15;14.75;;;2.08;;
40489;SDS011;26196;52.302;10.572;2024-01-27T03:51:17;11.88;;;2.00;;
40489;SDS011;26196;52.302;10.572;2024-01-27T03:55:19;7.25;;;1.85;;
40489;SDS011;26196;52.302;10.572;2024-01-27T03:59:20;13.90;;;2.60;;
40489;SDS011;26196;52.302;10.572;2024-01-27T04:03:22;8.45;;;1.92;;
40489;SDS011;26196;52.302;10.572;2024-01-27T04:07:24;6.82;;;1.73;;
40489;SDS011;26196;52.302;10.572;2024-01-27T04:11:25;7.45;;;2.00;;
40489;SDS011;26196;52.302;10.572;2024-01-27T04:15:27;9.52;;;2.17;;
40489;SDS011;26196;52.302;10.572;2024-01-27T04:19:28;9.98;;;1.80;;
40489;SDS011;26196;52.302;10.572;2024-01-27T04:23:30;18.45;;;2.33;;
40489;SDS011;26196;52.302;10.572;2024-01-27T04:27:32;8.57;;;1.50;;
40489;SDS011;26196;52.302;10.572;2024-01-27T04:31:39;10.02;;;3.05;;
40489;SDS011;26196;52.302;10.572;2024-01-27T04:35:42;8.35;;;1.90;;
40489;SDS011;26196;52.302;10.572;2024-01-27T04:39:43;7.07;;;2.95;;
40489;SDS011;26196;52.302;10.572;2024-01-27T04:43:44;8.82;;;1.30;;
40489;SDS011;26196;52.302;10.572;2024-01-27T04:47:46;8.35;;;1.50;;
40489;SDS011;26196;52.302;10.572;2024-01-27T04:51:48;8.18;;;1.77;;
40489;SDS011;26196;52.302;10.572;2024-01-27T04:55:49;13.05;;;2.83;;
40489;SDS011;26196;52.302;10.572;2024-01-27T04:59:51;10.25;;;2.00;;
40489;SDS011;26196;52.302;10.572;2024-01-27T05:03:52;4.95;;;1.35;;
40489;SDS011;26196;52.302;10.572;2024-01-27T05:07:54;9.38;;;1.67;;
40489;SDS011;26196;52.302;10.572;2024-01-27T05:11:56;10.10;;;1.92;;
40489;SDS011;26196;52.302;10.572;2024-01-27T05:15:57;7.25;;;1.60;;
40489;SDS011;26196;52.302;10.572;2024-01-27T05:19:59;8.63;;;1.83;;
40489;SDS011;26196;52.302;10.572;2024-01-27T05:24:00;8.10;;;1.27;;
40489;SDS011;26196;52.302;10.572;2024-01-27T05:28:03;10.90;;;1.63;;
40489;SDS011;26196;52.302;10.572;2024-01-27T05:32:04;9.57;;;1.42;;
40489;SDS011;26196;52.302;10.572;2024-01-27T05:36:06;6.32;;;1.30;;
40489;SDS011;26196;52.302;10.572;2024-01-27T05:40:08;9.65;;;2.40;;
40489;SDS011;26196;52.302;10.572;2024-01-27T05:44:10;8.80;;;2.10;;
40489;SDS011;26196;52.302;10.572;2024-01-27T05:48:12;7.18;;;1.95;;
40489;SDS011;26196;52.302;10.572;2024-01-27T05:52:14;8.70;;;2.15;;
40489;SDS011;26196;52.302;10.572;2024-01-27T05:56:25;13.02;;;2.35;;
40489;SDS011;26196;52.302;10.572;2024-01-27T06:00:27;6.95;;;1.42;;
40489;SDS011;26196;52.302;10.572;2024-01-27T06:04:28;5.10;;;1.30;;
40489;SDS011;26196;52.302;10.572;2024-01-27T06:08:32;9.13;;;2.17;;
40489;SDS011;26196;52.302;10.572;2024-01-27T06:12:33;6.97;;;2.72;;
40489;SDS011;26196;52.302;10.572;2024-01-27T06:16:35;8.25;;;1.80;;
40489;SDS011;26196;52.302;10.572;2024-01-27T06:20:37;10.85;;;2.40;;
40489;SDS011;26196;52.302;10.572;2024-01-27T06:24:41;7.65;;;2.13;;
40489;SDS011;26196;52.302;10.572;2024-01-27T06:28:44;5.38;;;1.75;;
40489;SDS011;26196;52.302;10.572;2024-01-27T06:32:46;5.88;;;1.20;;
40489;SDS011;26196;52.302;10.572;2024-01-27T06:36:48;11.05;;;2.42;;
40489;SDS011;26196;52.302;10.572;2024-01-27T06:40:50;6.57;;;1.67;;
40489;SDS011;26196;52.302;10.572;2024-01-27T06:44:51;5.07;;;2.00;;
40489;SDS011;26196;52.302;10.572;2024-01-27T06:48:53;7.80;;;1.45;;
40489;SDS011;26196;52.302;10.572;2024-01-27T06:52:55;8.50;;;1.88;;
40489;SDS011;26196;52.302;10.572;2024-01-27T06:56:59;6.43;;;2.13;;
40489;SDS011;26196;52.302;10.572;2024-01-27T07:01:01;6.63;;;2.10;;
40489;SDS011;26196;52.302;10.572;2024-01-27T07:05:04;6.22;;;1.50;;
40489;SDS011;26196;52.302;10.572;2024-01-27T07:09:05;6.28;;;1.67;;
40489;SDS011;26196;52.302;10.572;2024-01-27T07:13:08;8.63;;;3.17;;
40489;SDS011;26196;52.302;10.572;2024-01-27T07:17:09;8.13;;;1.80;;
40489;SDS011;26196;52.302;10.572;2024-01-27T07:21:14;15.80;;;3.45;;
40489;SDS011;26196;52.302;10.572;2024-01-27T07:25:17;15.45;;;3.75;;
40489;SDS011;26196;52.302;10.572;2024-01-27T07:29:19;17.00;;;2.65;;
40489;SDS011;26196;52.302;10.572;2024-01-27T07:33:21;7.05;;;2.00;;
40489;SDS011;26196;52.302;10.572;2024-01-27T07:37:23;8.07;;;1.88;;
40489;SDS011;26196;52.302;10.572;2024-01-27T07:41:24;9.13;;;2.08;;
40489;SDS011;26196;52.302;10.572;2024-01-27T07:45:29;15.18;;;2.70;;
40489;SDS011;26196;52.302;10.572;2024-01-27T07:49:31;9.63;;;1.90;;
40489;SDS011;26196;52.302;10.572;2024-01-27T07:53:33;12.38;;;2.38;;
40489;SDS011;26196;52.302;10.572;2024-01-27T07:57:35;11.98;;;2.33;;
40489;SDS011;26196;52.302;10.572;2024-01-27T08:01:37;12.05;;;2.08;;
40489;SDS011;26196;52.302;10.572;2024-01-27T08:05:38;10.30;;;1.95;;
40489;SDS011;26196;52.302;10.572;2024-01-27T08:09:40;9.38;;;1.80;;
40489;SDS011;26196;52.302;10.572;2024-01-27T08:13:41;9.30;;;2.53;;
40489;SDS011;26196;52.302;10.572;2024-01-27T08:17:43;12.20;;;2.33;;
40489;SDS011;26196;52.302;10.572;2024-01-27T08:21:45;10.68;;;2.35;;
40489;SDS011;26196;52.302;10.572;2024-01-27T08:25:48;10.02;;;1.77;;
40489;SDS011;26196;52.302;10.572;2024-01-27T08:29:53;9.15;;;2.35;;
40489;SDS011;26196;52.302;10.572;2024-01-27T08:33:58;8.60;;;2.17;;
40489;SDS011;26196;52.302;10.572;2024-01-27T08:38:00;9.85;;;2.28;;
40489;SDS011;26196;52.302;10.572;2024-01-27T08:42:02;7.85;;;1.98;;
40489;SDS011;26196;52.302;10.572;2024-01-27T08:46:03;8.13;;;2.00;;
40489;SDS011;26196;52.302;10.572;2024-01-27T08:50:05;14.80;;;3.17;;
40489;SDS011;26196;52.302;10.572;2024-01-27T08:54:07;9.57;;;2.42;;
40489;SDS011;26196;52.302;10.572;2024-01-27T08:58:09;7.93;;;1.98;;
40489;SDS011;26196;52.302;10.572;2024-01-27T09:02:10;7.47;;;2.53;;
40489;SDS011;26196;52.302;10.572;2024-01-27T09:06:12;6.45;;;1.73;;
40489;SDS011;26196;52.302;10.572;2024-01-27T09:10:14;7.75;;;1.65;;
40489;SDS011;26196;52.302;10.572;2024-01-27T09:14:17;11.77;;;3.88;;
40489;SDS011;26196;52.302;10.572;2024-01-27T09:18:18;8.15;;;1.90;;
40489;SDS011;26196;52.302;10.572;2024-01-27T09:22:21;5.70;;;2.70;;
40489;SDS011;26196;52.302;10.572;2024-01-27T09:26:23;6.82;;;1.77;;
40489;SDS011;26196;52.302;10.572;2024-01-27T09:30:25;7.50;;;1.85;;
40489;SDS011;26196;52.302;10.572;2024-01-27T09:34:30;8.77;;;2.40;;
40489;SDS011;26196;52.302;10.572;2024-01-27T09:38:32;8.05;;;1.92;;
40489;SDS011;26196;52.302;10.572;2024-01-27T09:42:33;8.88;;;1.83;;
40489;SDS011;26196;52.302;10.572;2024-01-27T09:46:39;9.73;;;3.35;;
40489;SDS011;26196;52.302;10.572;2024-01-27T09:50:41;10.27;;;1.92;;
40489;SDS011;26196;52.302;10.572;2024-01-27T09:54:44;5.78;;;1.70;;
40489;SDS011;26196;52.302;10.572;2024-01-27T09:58:46;7.15;;;1.98;;
40489;SDS011;26196;52.302;10.572;2024-01-27T10:02:52;8.52;;;2.40;;
40489;SDS011;26196;52.302;10.572;2024-01-27T10:06:56;8.55;;;2.58;;
40489;SDS011;26196;52.302;10.572;2024-01-27T10:10:59;5.78;;;1.67;;
40489;SDS011;26196;52.302;10.572;2024-01-27T10:15:00;8.13;;;2.13;;
40489;SDS011;26196;52.302;10.572;2024-01-27T10:19:03;7.95;;;2.55;;
40489;SDS011;26196;52.302;10.572;2024-01-27T10:23:12;9.77;;;2.10;;
40489;SDS011;26196;52.302;10.572;2024-01-27T10:27:14;7.13;;;2.15;;
40489;SDS011;26196;52.302;10.572;2024-01-27T10:31:20;9.90;;;2.75;;
40489;SDS011;26196;52.302;10.572;2024-01-27T10:35:27;7.53;;;2.08;;
40489;SDS011;26196;52.302;10.572;2024-01-27T10:39:29;7.55;;;3.00;;
40489;SDS011;26196;52.302;10.572;2024-01-27T10:43:30;5.53;;;2.17;;
40489;SDS011;26196;52.302;10.572;2024-01-27T10:47:38;6.57;;;2.17;;
40489;SDS011;26196;52.302;10.572;2024-01-27T10:51:56;9.95;;;2.33;;
40489;SDS011;26196;52.302;10.572;2024-01-27T10:55:58;7.55;;;2.38;;
40489;SDS011;26196;52.302;10.572;2024-01-27T11:00:01;11.48;;;2.20;;
40489;SDS011;26196;52.302;10.572;2024-01-27T11:04:05;7.97;;;1.70;;
40489;SDS011;26196;52.302;10.572;2024-01-27T11:08:09;10.40;;;3.33;;
40489;SDS011;26196;52.302;10.572;2024-01-27T11:12:13;9.02;;;2.08;;
40489;SDS011;26196;52.302;10.572;2024-01-27T11:16:16;12.48;;;2.38;;
40489;SDS011;26196;52.302;10.572;2024-01-27T11:20:19;14.60;;;2.60;;
40489;SDS011;26196;52.302;10.572;2024-01-27T11:24:23;15.48;;;3.67;;
40489;SDS011;26196;52.302;10.572;2024-01-27T11:28:25;12.98;;;3.92;;
40489;SDS011;26196;52.302;10.572;2024-01-27T11:32:27;12.77;;;2.70;;
40489;SDS011;26196;52.302;10.572;2024-01-27T11:36:28;12.75;;;3.25;;
40489;SDS011;26196;52.302;10.572;2024-01-27T11:40:43;11.27;;;2.50;;
40489;SDS011;26196;52.302;10.572;2024-01-27T11:44:46;12.23;;;2.33;;
40489;SDS011;26196;52.302;10.572;2024-01-27T11:48:48;10.10;;;2.20;;
40489;SDS011;26196;52.302;10.572;2024-01-27T11:52:50;9.88;;;2.50;;
40489;SDS011;26196;52.302;10.572;2024-01-27T11:56:52;7.82;;;2.40;;
40489;SDS011;26196;52.302;10.572;2024-01-27T12:00:53;9.27;;;2.63;;
40489;SDS011;26196;52.302;10.572;2024-01-27T12:04:55;11.57;;;2.40;;
40489;SDS011;26196;52.302;10.572;2024-01-27T12:08:57;4.85;;;1.92;;
40489;SDS011;26196;52.302;10.572;2024-01-27T12:13:00;7.65;;;2.47;;
40489;SDS011;26196;52.302;10.572;2024-01-27T12:17:02;8.57;;;3.22;;
40489;SDS011;26196;52.302;10.572;2024-01-27T12:21:03;24.08;;;7.10;;
40489;SDS011;26196;52.302;10.572;2024-01-27T12:25:08;22.98;;;7.03;;
40489;SDS011;26196;52.302;10.572;2024-01-27T12:29:11;22.40;;;8.65;;
40489;SDS011;26196;52.302;10.572;2024-01-27T12:33:13;38.60;;;10.95;;
40489;SDS011;26196;52.302;10.572;2024-01-27T12:37:15;32.15;;;13.07;;
40489;SDS011;26196;52.302;10.572;2024-01-27T12:41:16;27.95;;;10.13;;
40489;SDS011;26196;52.302;10.572;2024-01-27T12:45:18;22.27;;;7.63;;
40489;SDS011;26196;52.302;10.572;2024-01-27T12:49:20;14.07;;;5.90;;
40489;SDS011;26196;52.302;10.572;2024-01-27T12:53:21;15.30;;;4.40;;
40489;SDS011;26196;52.302;10.572;2024-01-27T12:57:23;13.43;;;4.50;;
40489;SDS011;26196;52.302;10.572;2024-01-27T13:01:25;13.13;;;4.65;;
40489;SDS011;26196;52.302;10.572;2024-01-27T13:05:27;17.55;;;4.45;;
40489;SDS011;26196;52.302;10.572;2024-01-27T13:09:31;17.13;;;5.60;;
40489;SDS011;26196;52.302;10.572;2024-01-27T13:13:32;17.38;;;5.40;;
40489;SDS011;26196;52.302;10.572;2024-01-27T13:17:34;14.20;;;4.10;;
40489;SDS011;26196;52.302;10.572;2024-01-27T13:21:35;13.60;;;3.55;;
40489;SDS011;26196;52.302;10.572;2024-01-27T13:25:37;15.70;;;3.83;;
40489;SDS011;26196;52.302;10.572;2024-01-27T13:29:39;13.77;;;4.20;;
40489;SDS011;26196;52.302;10.572;2024-01-27T13:33:40;11.18;;;2.95;;
40489;SDS011;26196;52.302;10.572;2024-01-27T13:37:42;11.95;;;2.85;;
40489;SDS011;26196;52.302;10.572;2024-01-27T13:41:44;13.73;;;3.33;;
40489;SDS011;26196;52.302;10.572;2024-01-27T13:45:45;7.78;;;2.50;;
40489;SDS011;26196;52.302;10.572;2024-01-27T13:49:48;10.23;;;2.92;;
40489;SDS011;26196;52.302;10.572;2024-01-27T13:53:51;10.30;;;3.17;;
40489;SDS011;26196;52.302;10.572;2024-01-27T13:57:52;14.10;;;2.75;;
40489;SDS011;26196;52.302;10.572;2024-01-27T14:01:54;6.35;;;2.25;;
40489;SDS011;26196;52.302;10.572;2024-01-27T14:05:58;8.05;;;2.60;;
40489;SDS011;26196;52.302;10.572;2024-01-27T14:09:59;10.05;;;2.83;;
40489;SDS011;26196;52.302;10.572;2024-01-27T14:14:02;10.25;;;3.40;;
40489;SDS011;26196;52.302;10.572;2024-01-27T14:18:03;9.13;;;2.72;;
40489;SDS011;26196;52.302;10.572;2024-01-27T14:22:07;9.93;;;2.75;;
40489;SDS011;26196;52.302;10.572;2024-01-27T14:26:09;8.73;;;2.70;;
40489;SDS011;26196;52.302;10.572;2024-01-27T14:30:16;11.00;;;2.75;;
40489;SDS011;26196;52.302;10.572;2024-01-27T14:34:17;8.38;;;2.70;;
40489;SDS011;26196;52.302;10.572;2024-01-27T14:38:20;8.90;;;2.20;;
40489;SDS011;26196;52.302;10.572;2024-01-27T14:42:21;12.73;;;3.28;;
40489;SDS011;26196;52.302;10.572;2024-01-27T14:46:23;8.98;;;2.60;;
40489;SDS011;26196;52.302;10.572;2024-01-27T14:50:25;8.18;;;2.20;;
40489;SDS011;26196;52.302;10.572;2024-01-27T14:54:26;8.63;;;1.85;;
40489;SDS011;26196;52.302;10.572;2024-01-27T14:58:28;12.95;;;2.40;;
40489;SDS011;26196;52.302;10.572;2024-01-27T15:02:29;7.75;;;2.30;;
40489;SDS011;26196;52.302;10.572;2024-01-27T15:06:31;8.02;;;2.78;;
40489;SDS011;26196;52.302;10.572;2024-01-27T15:10:35;3.17;;;1.58;;
40489;SDS011;26196;52.302;10.572;2024-01-27T15:14:37;7.65;;;2.25;;
40489;SDS011;26196;52.302;10.572;2024-01-27T15:18:39;6.68;;;2.15;;
40489;SDS011;26196;52.302;10.572;2024-01-27T15:26:46;5.75;;;1.58;;
40489;SDS011;26196;52.302;10.572;2024-01-27T15:30:49;8.93;;;1.60;;
40489;SDS011;26196;52.302;10.572;2024-01-27T15:34:51;7.25;;;2.63;;
40489;SDS011;26196;52.302;10.572;2024-01-27T15:38:53;3.90;;;1.58;;
40489;SDS011;26196;52.302;10.572;2024-01-27T15:42:55;9.45;;;2.55;;
40489;SDS011;26196;52.302;10.572;2024-01-27T15:46:57;4.88;;;1.88;;
40489;SDS011;26196;52.302;10.572;2024-01-27T15:51:00;5.95;;;2.00;;
40489;SDS011;26196;52.302;10.572;2024-01-27T15:55:02;6.72;;;1.95;;
40489;SDS011;26196;52.302;10.572;2024-01-27T15:59:04;7.50;;;2.10;;
40489;SDS011;26196;52.302;10.572;2024-01-27T16:03:05;5.50;;;2.10;;
40489;SDS011;26196;52.302;10.572;2024-01-27T16:07:07;5.10;;;1.73;;
40489;SDS011;26196;52.302;10.572;2024-01-27T16:11:09;6.00;;;1.73;;
40489;SDS011;26196;52.302;10.572;2024-01-27T16:15:10;5.60;;;1.92;;
40489;SDS011;26196;52.302;10.572;2024-01-27T16:19:13;5.13;;;2.35;;
40489;SDS011;26196;52.302;10.572;2024-01-27T16:23:15;6.45;;;2.28;;
40489;SDS011;26196;52.302;10.572;2024-01-27T16:27:20;6.40;;;2.13;;
40489;SDS011;26196;52.302;10.572;2024-01-27T16:31:23;7.30;;;3.55;;
40489;SDS011;26196;52.302;10.572;2024-01-27T16:35:25;6.60;;;2.70;;
40489;SDS011;26196;52.302;10.572;2024-01-27T16:39:27;7.55;;;2.38;;
40489;SDS011;26196;52.302;10.572;2024-01-27T16:43:29;8.75;;;2.70;;
40489;SDS011;26196;52.302;10.572;2024-01-27T16:47:31;10.07;;;2.20;;
40489;SDS011;26196;52.302;10.572;2024-01-27T16:51:32;7.75;;;2.28;;
40489;SDS011;26196;52.302;10.572;2024-01-27T16:55:34;9.77;;;2.63;;
40489;SDS011;26196;52.302;10.572;2024-01-27T16:59:36;8.18;;;3.10;;
40489;SDS011;26196;52.302;10.572;2024-01-27T17:03:39;13.40;;;3.25;;
40489;SDS011;26196;52.302;10.572;2024-01-27T17:07:41;11.82;;;2.88;;
40489;SDS011;26196;52.302;10.572;2024-01-27T17:11:42;6.72;;;2.00;;
40489;SDS011;26196;52.302;10.572;2024-01-27T17:15:43;5.43;;;2.20;;
40489;SDS011;26196;52.302;10.572;2024-01-27T17:19:46;12.98;;;3.30;;
40489;SDS011;26196;52.302;10.572;2024-01-27T17:23:48;10.75;;;3.42;;
40489;SDS011;26196;52.302;10.572;2024-01-27T17:27:50;7.22;;;3.15;;
40489;SDS011;26196;52.302;10.572;2024-01-27T17:31:51;9.02;;;3.97;;
40489;SDS011;26196;52.302;10.572;2024-01-27T17:35:53;10.23;;;4.43;;
40489;SDS011;26196;52.302;10.572;2024-01-27T17:39:54;7.45;;;4.13;;
40489;SDS011;26196;52.302;10.572;2024-01-27T17:43:57;10.50;;;3.83;;
40489;SDS011;26196;52.302;10.572;2024-01-27T17:47:58;7.40;;;3.67;;
40489;SDS011;26196;52.302;10.572;2024-01-27T17:52:00;10.55;;;4.05;;
40489;SDS011;26196;52.302;10.572;2024-01-27T17:56:03;8.35;;;3.50;;
40489;SDS011;26196;52.302;10.572;2024-01-27T18:00:05;8.32;;;3.97;;
40489;SDS011;26196;52.302;10.572;2024-01-27T18:04:11;7.97;;;3.65;;
40489;SDS011;26196;52.302;10.572;2024-01-27T18:08:14;7.75;;;3.20;;
40489;SDS011;26196;52.302;10.572;2024-01-27T18:12:17;7.55;;;4.43;;
40489;SDS011;26196;52.302;10.572;2024-01-27T18:16:19;7.93;;;2.83;;
40489;SDS011;26196;52.302;10.572;2024-01-27T18:20:20;6.07;;;3.00;;
40489;SDS011;26196;52.302;10.572;2024-01-27T18:24:22;10.50;;;3.08;;
40489;SDS011;26196;52.302;10.572;2024-01-27T18:28:24;9.43;;;3.65;;
40489;SDS011;26196;52.302;10.572;2024-01-27T18:32:26;11.98;;;4.43;;
40489;SDS011;26196;52.302;10.572;2024-01-27T18:36:27;9.30;;;4.18;;
40489;SDS011;26196;52.302;10.572;2024-01-27T18:40:29;11.35;;;4.95;;
40489;SDS011;26196;52.302;10.572;2024-01-27T18:44:31;9.77;;;3.55;;
40489;SDS011;26196;52.302;10.572;2024-01-27T18:48:32;11.02;;;4.32;;
40489;SDS011;26196;52.302;10.572;2024-01-27T18:52:34;7.45;;;4.00;;
40489;SDS011;26196;52.302;10.572;2024-01-27T18:56:38;14.15;;;5.00;;
40489;SDS011;26196;52.302;10.572;2024-01-27T19:00:39;10.35;;;4.07;;
40489;SDS011;26196;52.302;10.572;2024-01-27T19:04:41;8.38;;;4.00;;
40489;SDS011;26196;52.302;10.572;2024-01-27T19:08:44;6.50;;;3.70;;
40489;SDS011;26196;52.302;10.572;2024-01-27T19:12:45;7.50;;;3.72;;
40489;SDS011;26196;52.302;10.572;2024-01-27T19:16:47;9.50;;;4.25;;
40489;SDS011;26196;52.302;10.572;2024-01-27T19:20:49;8.00;;;4.20;;
40489;SDS011;26196;52.302;10.572;2024-01-27T19:24:50;8.48;;;3.63;;
40489;SDS011;26196;52.302;10.572;2024-01-27T19:28:52;6.07;;;3.17;;
40489;SDS011;26196;52.302;10.572;2024-01-27T19:32:54;7.80;;;3.70;;
40489;SDS011;26196;52.302;10.572;2024-01-27T19:36:56;5.57;;;3.15;;
40489;SDS011;26196;52.302;10.572;2024-01-27T19:41:00;7.22;;;3.85;;
40489;SDS011;26196;52.302;10.572;2024-01-27T19:45:18;7.97;;;3.60;;
40489;SDS011;26196;52.302;10.572;2024-01-27T19:49:21;8.82;;;3.72;;
40489;SDS011;26196;52.302;10.572;2024-01-27T19:53:23;8.32;;;3.38;;
40489;SDS011;26196;52.302;10.572;2024-01-27T19:57:26;9.45;;;3.58;;
40489;SDS011;26196;52.302;10.572;2024-01-27T20:01:28;9.45;;;3.90;;
40489;SDS011;26196;52.302;10.572;2024-01-27T20:05:29;5.68;;;3.70;;
40489;SDS011;26196;52.302;10.572;2024-01-27T20:09:31;7.05;;;4.00;;
40489;SDS011;26196;52.302;10.572;2024-01-27T20:13:33;6.32;;;3.75;;
40489;SDS011;26196;52.302;10.572;2024-01-27T20:17:34;7.00;;;3.72;;
40489;SDS011;26196;52.302;10.572;2024-01-27T20:21:36;9.27;;;3.83;;
40489;SDS011;26196;52.302;10.572;2024-01-27T20:25:38;6.97;;;3.83;;
40489;SDS011;26196;52.302;10.572;2024-01-27T20:29:39;6.57;;;3.45;;
40489;SDS011;26196;52.302;10.572;2024-01-27T20:33:41;6.45;;;3.58;;
40489;SDS011;26196;52.302;10.572;2024-01-27T20:37:50;4.50;;;3.22;;
40489;SDS011;26196;52.302;10.572;2024-01-27T20:41:52;6.97;;;3.42;;
40489;SDS011;26196;52.302;10.572;2024-01-27T20:45:53;5.18;;;3.03;;
40489;SDS011;26196;52.302;10.572;2024-01-27T20:49:55;6.07;;;3.22;;
40489;SDS011;26196;52.302;10.572;2024-01-27T20:53:57;6.25;;;3.28;;
40489;SDS011;26196;52.302;10.572;2024-01-27T20:57:58;4.22;;;2.83;;
40489;SDS011;26196;52.302;10.572;2024-01-27T21:02:00;5.35;;;2.40;;
40489;SDS011;26196;52.302;10.572;2024-01-27T21:06:04;5.18;;;2.85;;
40489;SDS011;26196;52.302;10.572;2024-01-27T21:10:06;5.18;;;2.55;;
40489;SDS011;26196;52.302;10.572;2024-01-27T21:14:08;5.05;;;2.88;;
40489;SDS011;26196;52.302;10.572;2024-01-27T21:18:10;9.70;;;3.25;;
40489;SDS011;26196;52.302;10.572;2024-01-27T21:22:11;7.57;;;2.70;;
40489;SDS011;26196;52.302;10.572;2024-01-27T21:26:13;7.07;;;2.88;;
40489;SDS011;26196;52.302;10.572;2024-01-27T21:30:16;5.82;;;3.10;;
40489;SDS011;26196;52.302;10.572;2024-01-27T21:34:17;6.93;;;3.40;;
40489;SDS011;26196;52.302;10.572;2024-01-27T21:38:19;7.07;;;3.10;;
40489;SDS011;26196;52.302;10.572;2024-01-27T21:42:21;5.55;;;2.60;;
40489;SDS011;26196;52.302;10.572;2024-01-27T21:46:23;7.05;;;2.85;;
40489;SDS011;26196;52.302;10.572;2024-01-27T21:50:25;5.72;;;2.40;;
40489;SDS011;26196;52.302;10.572;2024-01-27T21:54:27;4.65;;;2.80;;
40489;SDS011;26196;52.302;10.572;2024-01-27T21:58:29;5.82;;;3.47;;
40489;SDS011;26196;52.302;10.572;2024-01-27T22:02:31;4.85;;;3.08;;
40489;SDS011;26196;52.302;10.572;2024-01-27T22:06:40;4.35;;;2.53;;
40489;SDS011;26196;52.302;10.572;2024-01-27T22:10:42;8.05;;;4.15;;
40489;SDS011;26196;52.302;10.572;2024-01-27T22:14:44;4.05;;;2.35;;
40489;SDS011;26196;52.302;10.572;2024-01-27T22:18:45;5.80;;;2.05;;
40489;SDS011;26196;52.302;10.572;2024-01-27T22:22:47;6.00;;;2.90;;
40489;SDS011;26196;52.302;10.572;2024-01-27T22:26:48;6.68;;;3.08;;
40489;SDS011;26196;52.302;10.572;2024-01-27T22:30:50;7.88;;;2.47;;
40489;SDS011;26196;52.302;10.572;2024-01-27T22:34:52;5.63;;;3.35;;
40489;SDS011;26196;52.302;10.572;2024-01-27T22:38:54;4.65;;;2.83;;
40489;SDS011;26196;52.302;10.572;2024-01-27T22:42:57;4.55;;;2.95;;
40489;SDS011;26196;52.302;10.572;2024-01-27T22:46:58;6.05;;;2.83;;
40489;SDS011;26196;52.302;10.572;2024-01-27T22:51:00;5.40;;;2.60;;
40489;SDS011;26196;52.302;10.572;2024-01-27T22:55:01;5.38;;;3.00;;
40489;SDS011;26196;52.302;10.572;2024-01-27T22:59:03;7.75;;;2.85;;
40489;SDS011;26196;52.302;10.572;2024-01-27T23:03:06;4.85;;;2.40;;
40489;SDS011;26196;52.302;10.572;2024-01-27T23:07:09;5.50;;;2.55;;
40489;SDS011;26196;52.302;10.572;2024-01-27T23:11:10;4.68;;;2.67;;
40489;SDS011;26196;52.302;10.572;2024-01-27T23:15:12;4.68;;;2.70;;
40489;SDS011;26196;52.302;10.572;2024-01-27T23:19:14;7.28;;;2.53;;
40489;SDS011;26196;52.302;10.572;2024-01-27T23:23:15;5.68;;;2.78;;
40489;SDS011;26196;52.302;10.572;2024-01-27T23:27:17;6.28;;;2.38;;
40489;SDS011;26196;52.302;10.572;2024-01-27T23:31:18;6.10;;;2.80;;
40489;SDS011;26196;52.302;10.572;2024-01-27T23:35:20;4.85;;;3.05;;
40489;SDS011;26196;52.302;10.572;2024-01-27T23:39:23;7.05;;;3.00;;
40489;SDS011;26196;52.302;10.572;2024-01-27T23:43:25;8.85;;;3.40;;
40489;SDS011;26196;52.302;10.572;2024-01-27T23:47:26;6.22;;;3.20;;
40489;SDS011;26196;52.302;10.572;2024-01-27T23:51:28;5.45;;;3.33;;
40489;SDS011;26196;52.302;10.572;2024-01-27T23:55:30;6.80;;;3.15;;